Time;durP1;ratioP1;P1;durP2;ratioP2;P2;SDS_P1;SDS_P2;PMS_P1;PMS_P2;Temp;Humidity;BMP_temperature;BMP_pressure;BME280_temperature;BME280_humidity;BME280_pressure;Samples;Min_cycle;Max_cycle;Signal;HPM_P1;HPM_P2
2021/11/11 00:00:30;;;;;;;59.13;24.75;;;;;;;9.58;80.18;102339.50;5057539;28;20036;-48
2021/11/11 00:02:57;;;;;;;61.40;22.40;;;;;;;9.56;80.31;102340.66;5073622;28;20521;-47
2021/11/11 00:05:23;;;;;;;63.45;23.95;;;;;;;9.58;80.55;102338.66;5075580;28;20028;-48
2021/11/11 00:07:48;;;;;;;60.78;25.23;;;;;;;9.59;80.83;102340.38;5064695;28;20024;-47
2021/11/11 00:10:14;;;;;;;61.42;25.25;;;;;;;9.59;80.18;102346.59;5055290;28;20017;-46
2021/11/11 00:12:40;;;;;;;72.13;24.65;;;;;;;9.61;80.61;102344.63;5055451;28;20445;-46
2021/11/11 00:15:07;;;;;;;68.88;24.35;;;;;;;9.61;80.42;102343.75;5055303;28;20108;-46
2021/11/11 00:17:33;;;;;;;54.13;23.50;;;;;;;9.64;80.61;102348.88;5055542;28;20059;-46
2021/11/11 00:19:58;;;;;;;75.57;25.02;;;;;;;9.60;80.31;102348.28;5060296;28;20389;-45
2021/11/11 00:22:24;;;;;;;68.68;25.50;;;;;;;9.62;80.55;102345.47;5055159;28;20107;-46
2021/11/11 00:24:50;;;;;;;77.57;26.13;;;;;;;9.64;80.40;102340.81;5055116;28;20111;-47
2021/11/11 00:27:16;;;;;;;74.05;27.42;;;;;;;9.66;80.41;102337.00;5059805;28;20036;-45
2021/11/11 00:29:41;;;;;;;57.45;25.92;;;;;;;9.66;80.56;102331.59;5074376;28;20051;-46
2021/11/11 00:32:07;;;;;;;68.63;27.10;;;;;;;9.66;80.50;102338.78;5074965;28;20428;-45
2021/11/11 00:34:32;;;;;;;67.07;25.85;;;;;;;9.65;80.67;102335.25;5056925;28;20123;-44
2021/11/11 00:36:59;;;;;;;70.53;24.73;;;;;;;9.71;80.93;102344.59;5054271;28;20048;-45
2021/11/11 00:39:24;;;;;;;64.75;25.88;;;;;;;9.73;80.56;102344.47;5038119;28;20375;-46
2021/11/11 00:41:49;;;;;;;71.68;27.02;;;;;;;9.75;80.70;102335.28;5055096;28;20029;-47
2021/11/11 00:44:15;;;;;;;65.95;26.75;;;;;;;9.71;80.56;102355.38;5037181;28;20057;-46
2021/11/11 00:46:41;;;;;;;67.43;26.33;;;;;;;9.68;80.75;102345.75;5054950;28;20056;-43
2021/11/11 00:49:07;;;;;;;79.60;26.58;;;;;;;9.64;81.26;102340.81;5059422;28;20074;-46
2021/11/11 00:51:36;;;;;;;67.38;27.17;;;;;;;9.62;81.20;102350.84;5055295;28;20025;-47
2021/11/11 00:54:02;;;;;;;65.45;26.10;;;;;;;9.61;81.72;102349.13;5055737;28;20025;-46
2021/11/11 00:56:28;;;;;;;82.15;30.33;;;;;;;9.60;81.68;102350.97;5036970;28;20468;-47
2021/11/11 00:58:54;;;;;;;73.07;27.40;;;;;;;9.59;81.82;102343.91;5071308;28;20036;-45
2021/11/11 01:01:20;;;;;;;64.95;26.67;;;;;;;9.58;81.45;102352.09;5056546;28;20052;-47
2021/11/11 01:03:45;;;;;;;69.10;26.80;;;;;;;9.62;81.63;102356.22;5074483;28;20486;-48
2021/11/11 01:06:12;;;;;;;81.50;28.05;;;;;;;9.63;81.57;102360.59;5074252;28;20383;-46
2021/11/11 01:08:38;;;;;;;79.70;27.67;;;;;;;9.65;82.06;102354.09;5040042;28;20085;-46
2021/11/11 01:11:05;;;;;;;68.57;27.17;;;;;;;9.68;82.29;102348.44;5075369;28;20406;-48
2021/11/11 01:13:31;;;;;;;73.50;28.35;;;;;;;9.67;82.10;102348.59;5059743;28;20112;-48
2021/11/11 01:15:58;;;;;;;64.32;26.75;;;;;;;9.70;82.26;102334.84;5073735;28;20024;-47
2021/11/11 01:18:23;;;;;;;75.22;27.98;;;;;;;9.75;81.86;102340.66;5039593;28;20028;-46
2021/11/11 01:20:49;;;;;;;76.32;28.23;;;;;;;9.73;81.65;102342.63;5056138;28;20035;-48
2021/11/11 01:23:14;;;;;;;71.10;28.42;;;;;;;9.72;82.44;102330.19;5055947;28;20487;-49
2021/11/11 01:25:40;;;;;;;70.75;28.70;;;;;;;9.68;82.19;102337.69;5073966;28;20036;-47
2021/11/11 01:28:07;;;;;;;85.72;29.13;;;;;;;9.67;82.38;102332.44;5073943;28;20440;-46
2021/11/11 01:30:34;;;;;;;71.40;28.63;;;;;;;9.66;82.29;102325.34;5072801;28;20463;-48
2021/11/11 01:32:59;;;;;;;76.38;30.35;;;;;;;9.64;82.24;102322.81;5064564;28;20456;-49
2021/11/11 01:35:24;;;;;;;79.28;29.45;;;;;;;9.67;82.73;102319.00;5053989;28;20027;-48
2021/11/11 01:37:50;;;;;;;77.57;29.58;;;;;;;9.67;83.24;102316.31;5054682;28;20062;-45
2021/11/11 01:40:16;;;;;;;76.72;30.65;;;;;;;9.65;83.13;102313.75;5053848;28;20064;-46
2021/11/11 01:42:44;;;;;;;76.13;29.80;;;;;;;9.67;82.80;102308.25;5053616;28;20082;-48
2021/11/11 01:45:09;;;;;;;;;;;;;;;9.64;82.90;102312.06;5069305;28;20463;-46
2021/11/11 01:47:36;;;;;;;72.38;27.65;;;;;;;9.66;82.97;102306.53;5067976;28;19924;-48
2021/11/11 01:50:03;;;;;;;72.90;29.23;;;;;;;9.65;82.69;102302.16;5053338;28;20033;-47
2021/11/11 01:52:28;;;;;;;69.78;29.63;;;;;;;9.63;82.74;102302.28;5053559;28;20395;-46
2021/11/11 01:54:54;;;;;;;76.85;30.38;;;;;;;9.60;82.79;102301.72;5053385;28;20036;-44
2021/11/11 01:57:19;;;;;;;78.97;30.10;;;;;;;9.58;83.22;102301.03;5053271;28;20490;-45
2021/11/11 01:59:44;;;;;;;82.20;31.58;;;;;;;9.56;83.59;102297.66;5054614;28;20442;-45
2021/11/11 02:02:10;;;;;;;78.28;30.05;;;;;;;9.58;83.39;102301.03;5056887;28;20038;-46
2021/11/11 02:04:35;;;;;;;73.57;29.55;;;;;;;9.58;83.37;102293.78;5053256;28;20064;-45
2021/11/11 02:07:00;;;;;;;83.43;31.95;;;;;;;9.61;83.28;102300.72;5054123;28;20028;-45
2021/11/11 02:09:26;;;;;;;76.00;29.58;;;;;;;9.63;83.76;102293.38;5061863;28;20028;-46
2021/11/11 02:11:52;;;;;;;75.75;31.35;;;;;;;9.60;83.31;102294.50;5093422;28;20028;-45
2021/11/11 02:14:17;;;;;;;81.03;30.77;;;;;;;9.62;83.56;102291.69;5093178;28;20081;-47
2021/11/11 02:16:43;;;;;;;80.78;29.95;;;;;;;9.61;83.41;102284.59;5072918;28;20111;-47
2021/11/11 02:19:09;;;;;;;73.90;30.27;;;;;;;9.59;83.31;102291.97;5054924;28;20028;-45
2021/11/11 02:21:37;;;;;;;77.93;29.30;;;;;;;9.59;83.28;102289.28;5073179;28;20040;-46
2021/11/11 02:24:03;;;;;;;84.03;28.92;;;;;;;9.60;82.82;102299.03;5055057;28;20471;-48
2021/11/11 02:26:28;;;;;;;76.07;31.00;;;;;;;9.59;82.77;102292.81;5052721;28;20037;-48
2021/11/11 02:28:53;;;;;;;81.85;31.50;;;;;;;9.62;82.90;102297.06;5054617;28;20041;-48
2021/11/11 02:31:19;;;;;;;79.82;29.38;;;;;;;9.64;83.29;102300.47;5053528;28;20463;-48
2021/11/11 02:33:54;;;;;;;76.15;30.58;;;;;;;9.61;83.13;102292.66;5064747;28;20369;-48
2021/11/11 02:36:20;;;;;;;75.68;28.52;;;;;;;9.60;82.93;102286.44;5052697;28;20045;-48
2021/11/11 02:38:45;;;;;;;68.18;28.27;;;;;;;9.60;82.65;102277.53;5060518;28;20482;-49
2021/11/11 02:41:11;;;;;;;76.47;28.80;;;;;;;9.60;82.99;102282.91;5035759;28;20047;-46
2021/11/11 02:43:37;;;;;;;75.50;28.08;;;;;;;9.58;82.39;102279.50;5052719;28;20036;-47
2021/11/11 02:46:03;;;;;;;79.88;29.17;;;;;;;9.60;82.66;102272.16;5052702;28;20029;-46
2021/11/11 02:48:28;;;;;;;67.47;27.60;;;;;;;9.65;82.19;102277.97;5071319;28;20086;-46
2021/11/11 02:50:54;;;;;;;71.13;29.08;;;;;;;9.63;82.58;102282.63;5072288;28;20033;-45
2021/11/11 02:53:20;;;;;;;80.88;28.48;;;;;;;9.62;82.85;102280.94;5050838;28;20033;-48
2021/11/11 02:55:46;;;;;;;77.28;27.65;;;;;;;9.64;81.93;102285.19;5052610;28;20025;-46
2021/11/11 02:58:11;;;;;;;71.70;26.65;;;;;;;9.68;82.30;102283.91;5052588;28;20112;-48
2021/11/11 03:00:48;;;;;;;72.75;27.50;;;;;;;9.67;82.57;102281.38;5052450;28;20033;-46
2021/11/11 03:03:13;;;;;;;80.50;26.60;;;;;;;9.65;82.43;102286.03;5052702;28;20480;-46
2021/11/11 03:05:39;;;;;;;76.97;27.13;;;;;;;9.64;82.36;102279.81;5052428;28;20057;-47
2021/11/11 03:08:05;;;;;;;63.67;26.30;;;;;;;9.64;82.01;102282.50;5054439;28;20071;-45
2021/11/11 03:10:31;;;;;;;75.10;28.40;;;;;;;9.61;81.84;102289.97;5072752;28;20037;-48
2021/11/11 03:12:58;;;;;;;73.07;27.13;;;;;;;9.61;82.40;102282.78;5053460;28;20036;-45
2021/11/11 03:15:25;;;;;;;66.07;25.20;;;;;;;9.65;81.97;102286.88;5052500;28;20029;-47
2021/11/11 03:17:50;;;;;;;75.28;26.73;;;;;;;9.63;82.23;102291.53;5068354;28;20446;-46
2021/11/11 03:20:17;;;;;;;68.05;27.00;;;;;;;9.62;82.47;102287.16;5054635;28;20060;-46
2021/11/11 03:22:43;;;;;;;74.47;26.83;;;;;;;9.60;82.42;102283.75;5059605;28;20029;-44
2021/11/11 03:25:13;;;;;;;63.65;26.20;;;;;;;9.62;82.53;102286.31;5052454;28;20521;-46
2021/11/11 03:27:39;;;;;;;76.00;26.38;;;;;;;9.62;82.78;102291.69;5052368;28;20511;-46
2021/11/11 03:30:11;;;;;;;61.03;25.38;;;;;;;9.54;82.74;102286.19;5052059;28;20132;-44
2021/11/11 03:32:37;;;;;;;73.53;27.98;;;;;;;9.52;83.04;102291.69;5053447;28;20065;-46
2021/11/11 03:35:03;;;;;;;71.68;28.00;;;;;;;9.53;83.02;102292.53;5052359;28;20510;-46
2021/11/11 03:37:29;;;;;;;73.50;27.17;;;;;;;9.52;83.12;102297.06;5052080;28;20112;-46
2021/11/11 03:39:54;;;;;;;77.15;26.30;;;;;;;9.48;82.90;102294.78;5057036;28;20108;-46
2021/11/11 03:42:19;;;;;;;61.92;28.08;;;;;;;9.45;83.38;102295.91;5054239;28;20036;-47
2021/11/11 03:44:45;;;;;;;66.15;27.50;;;;;;;9.43;83.32;102293.38;5054219;28;20067;-46
2021/11/11 03:47:11;;;;;;;70.20;27.95;;;;;;;9.45;83.33;102295.91;5057572;28;20029;-46
2021/11/11 03:49:37;;;;;;;70.22;27.98;;;;;;;9.48;83.43;102289.41;5053711;28;20045;-48
2021/11/11 03:52:03;;;;;;;65.18;25.85;;;;;;;9.49;83.33;102286.59;5059442;28;20029;-46
2021/11/11 03:54:29;;;;;;;61.03;26.20;;;;;;;9.51;83.27;102289.16;5055918;28;20021;-48
2021/11/11 03:56:56;;;;;;;69.43;27.35;;;;;;;9.52;83.44;102296.22;5055763;28;20386;-48
2021/11/11 03:59:23;;;;;;;73.33;27.47;;;;;;;9.51;83.47;102299.91;5055691;28;20021;-48
2021/11/11 04:01:48;;;;;;;64.20;26.85;;;;;;;9.51;83.67;102292.69;5068623;28;20040;-47
2021/11/11 04:04:14;;;;;;;63.63;26.35;;;;;;;9.51;83.61;102294.53;5074525;28;20036;-48
2021/11/11 04:06:39;;;;;;;72.93;28.92;;;;;;;9.48;83.64;102297.47;5055392;28;20036;-46
2021/11/11 04:09:05;;;;;;;66.50;26.17;;;;;;;9.48;83.54;102303.72;5056741;28;20108;-45
2021/11/11 04:11:31;;;;;;;70.70;28.02;;;;;;;9.43;83.88;102301.44;5055149;28;20387;-46
2021/11/11 04:13:57;;;;;;;77.35;27.60;;;;;;;9.45;83.58;102307.53;5051788;28;20068;-45
2021/11/11 04:16:23;;;;;;;77.45;28.42;;;;;;;9.45;83.98;102302.16;5064226;28;20033;-47
2021/11/11 04:18:49;;;;;;;77.55;26.67;;;;;;;9.47;83.87;102309.22;5020901;28;20048;-46
2021/11/11 04:21:16;;;;;;;62.25;25.25;;;;;;;9.50;83.95;102303.56;5054960;28;20021;-46
2021/11/11 04:23:42;;;;;;;72.60;27.90;;;;;;;9.53;84.25;102297.91;5054138;28;20033;-48
2021/11/11 04:26:17;;;;;;;69.72;27.20;;;;;;;9.52;83.78;102309.66;5053628;28;20032;-46
2021/11/11 04:28:50;;;;;;;65.00;26.10;;;;;;;9.53;84.07;102304.16;5054629;28;20021;-48
2021/11/11 04:31:22;;;;;;;70.78;26.38;;;;;;;9.53;84.08;102304.16;5058700;28;20084;-47
2021/11/11 04:33:51;;;;;;;75.65;26.67;;;;;;;9.54;84.17;102307.69;5055405;28;20037;-48
2021/11/11 04:36:42;;;;;;;71.20;27.42;;;;;;;9.57;83.77;102302.03;5055274;28;20037;-46
2021/11/11 04:42:10;;;;;;;;;;;;;;;9.52;84.09;102302.44;5075505;28;20382;-46
2021/11/11 04:44:54;;;;;;;69.75;25.88;;;;;;;9.50;84.09;102293.66;5074723;28;19919;-48
2021/11/11 05:05:44;;;;;;;80.90;28.30;;;;;;;9.49;84.44;102296.50;5069994;28;20440;-47
2021/11/11 05:08:09;;;;;;;71.07;28.38;;;;;;;9.48;84.27;102300.16;5061083;28;20051;-44
2021/11/11 05:10:35;;;;;;;69.60;28.40;;;;;;;9.44;84.64;102300.44;5076151;28;20202;-47
2021/11/11 05:13:00;;;;;;;71.13;27.05;;;;;;;9.45;84.88;102294.09;5094288;28;20028;-48
2021/11/11 05:15:26;;;;;;;89.63;28.50;;;;;;;9.43;84.51;102295.22;5075306;28;20036;-49
2021/11/11 05:17:51;;;;;;;76.15;29.25;;;;;;;9.43;84.83;102303.28;5069586;28;20100;-48
2021/11/11 05:20:18;;;;;;;68.03;28.83;;;;;;;9.43;85.05;102314.88;5052027;28;20386;-46
2021/11/11 05:22:44;;;;;;;75.78;29.27;;;;;;;9.45;85.01;102302.16;5068031;28;20048;-46
2021/11/11 05:25:11;;;;;;;72.55;28.27;;;;;;;9.52;84.90;102306.97;5055666;28;20082;-48
2021/11/11 05:27:37;;;;;;;77.63;29.88;;;;;;;9.48;84.97;102310.91;5073448;28;20387;-47
2021/11/11 05:30:05;;;;;;;62.83;28.30;;;;;;;9.53;85.08;102305.97;5070164;28;20124;-45
2021/11/11 05:32:31;;;;;;;83.22;31.58;;;;;;;9.51;84.80;102299.91;5055603;28;20028;-46
2021/11/11 05:34:56;;;;;;;70.43;29.75;;;;;;;9.51;85.19;102298.06;5070830;28;20035;-47
2021/11/11 05:37:22;;;;;;;70.00;29.67;;;;;;;9.52;85.16;102313.19;5061716;28;20060;-48
2021/11/11 05:39:47;;;;;;;78.25;30.63;;;;;;;9.51;85.31;102306.13;5040537;28;20033;-46
2021/11/11 05:42:12;;;;;;;76.57;29.98;;;;;;;9.56;85.08;102308.41;5053518;28;20091;-46
2021/11/11 05:44:38;;;;;;;68.88;28.90;;;;;;;9.57;85.35;102304.72;5065383;28;20048;-47
2021/11/11 05:47:03;;;;;;;68.70;28.38;;;;;;;9.60;84.98;102304.41;5066531;28;20032;-46
2021/11/11 05:49:29;;;;;;;82.00;30.98;;;;;;;9.61;85.14;102306.09;5067044;28;20124;-48
2021/11/11 05:51:55;;;;;;;83.07;30.20;;;;;;;9.58;85.18;102301.03;5060993;28;20040;-47
2021/11/11 05:54:20;;;;;;;70.93;31.00;;;;;;;9.56;85.54;102305.72;5058326;28;20115;-47
2021/11/11 05:56:46;;;;;;;77.13;31.05;;;;;;;9.57;85.62;102305.56;5064096;28;20028;-47
2021/11/11 05:59:12;;;;;;;72.03;29.40;;;;;;;9.59;85.67;102308.94;5053042;28;20032;-47
2021/11/11 06:01:38;;;;;;;70.50;29.63;;;;;;;9.63;85.40;102310.34;5060787;28;20028;-49
2021/11/11 06:04:03;;;;;;;74.35;31.88;;;;;;;9.65;85.16;102318.28;5036096;28;20456;-45
2021/11/11 06:06:29;;;;;;;79.28;31.45;;;;;;;9.64;85.20;102314.75;5053457;28;20037;-47
2021/11/11 06:08:55;;;;;;;78.97;31.15;;;;;;;9.59;85.61;102317.03;5052784;28;20487;-49
2021/11/11 06:11:20;;;;;;;70.07;29.55;;;;;;;9.61;85.36;102316.84;5034126;28;20108;-47
2021/11/11 06:13:46;;;;;;;79.47;30.13;;;;;;;9.59;85.71;102313.50;5052574;28;20035;-49
2021/11/11 06:16:11;;;;;;;86.65;32.60;;;;;;;9.54;85.63;102318.44;5052622;28;20535;-49
2021/11/11 06:18:37;;;;;;;73.05;32.08;;;;;;;9.53;86.05;102325.66;5052354;28;20029;-48
2021/11/11 06:21:02;;;;;;;74.45;33.67;;;;;;;9.57;85.91;102326.22;5034347;28;20043;-46
2021/11/11 06:23:28;;;;;;;74.07;32.47;;;;;;;9.58;85.83;102327.91;5034402;28;20028;-46
2021/11/11 06:25:55;;;;;;;70.53;32.65;;;;;;;9.54;86.06;102331.88;5052606;28;20021;-46
2021/11/11 06:28:20;;;;;;;73.43;32.30;;;;;;;9.55;86.63;102337.09;5052660;28;20064;-46
2021/11/11 06:30:46;;;;;;;72.18;33.67;;;;;;;9.59;86.60;102326.94;5034587;28;20053;-46
2021/11/11 06:33:13;;;;;;;79.88;34.83;;;;;;;9.56;87.07;102335.28;5052436;28;20128;-47
2021/11/11 06:35:38;;;;;;;71.10;32.70;;;;;;;9.60;86.94;102336.69;5052480;28;20365;-46
2021/11/11 06:38:04;;;;;;;78.00;32.67;;;;;;;9.60;87.21;102334.00;5052218;28;20490;-47
2021/11/11 06:40:30;;;;;;;78.07;32.58;;;;;;;9.63;87.17;102333.72;5052306;28;20065;-48
2021/11/11 06:42:56;;;;;;;72.95;32.58;;;;;;;9.61;87.39;102338.38;5052502;28;20064;-45
2021/11/11 06:45:22;;;;;;;72.40;32.92;;;;;;;9.57;87.38;102345.88;5034538;28;20056;-47
2021/11/11 06:47:47;;;;;;;76.03;31.63;;;;;;;9.56;87.32;102349.56;5050833;28;20025;-48
2021/11/11 06:50:13;;;;;;;77.60;34.28;;;;;;;9.58;87.27;102349.41;5032541;28;20018;-48
2021/11/11 06:52:38;;;;;;;73.72;33.13;;;;;;;9.54;87.54;102356.91;5051952;28;20021;-47
2021/11/11 06:55:05;;;;;;;80.40;34.80;;;;;;;9.54;87.50;102356.06;5034183;28;20025;-47
2021/11/11 06:57:32;;;;;;;83.90;34.72;;;;;;;9.51;87.75;102354.50;5037147;28;20036;-46
2021/11/11 06:59:58;;;;;;;82.05;35.17;;;;;;;9.53;87.45;102357.03;5072034;28;20513;-47
2021/11/11 07:02:26;;;;;;;85.65;35.58;;;;;;;9.55;87.62;102361.28;5071634;28;20025;-47
2021/11/11 07:04:54;;;;;;;87.32;36.22;;;;;;;9.55;87.74;102358.59;5072336;28;20043;-48
2021/11/11 07:07:19;;;;;;;89.38;37.70;;;;;;;9.54;87.94;102364.13;5071839;28;20078;-47
2021/11/11 07:09:45;;;;;;;79.85;36.30;;;;;;;9.55;87.88;102363.13;5066461;28;20024;-48
2021/11/11 07:12:10;;;;;;;87.70;35.42;;;;;;;9.54;87.83;102358.75;5071405;28;20060;-46
2021/11/11 07:14:37;;;;;;;81.97;35.88;;;;;;;9.56;87.41;102356.78;5071803;28;20028;-45
2021/11/11 07:17:03;;;;;;;80.85;35.47;;;;;;;9.57;87.41;102366.53;5071737;28;20021;-45
2021/11/11 07:19:29;;;;;;;81.38;35.92;;;;;;;9.62;87.31;102372.34;5071427;28;20020;-48
2021/11/11 07:21:54;;;;;;;84.75;34.90;;;;;;;9.62;87.53;102375.88;5071750;28;20177;-49
2021/11/11 07:24:20;;;;;;;81.70;33.50;;;;;;;9.64;87.44;102378.44;5073741;28;20036;-47
2021/11/11 07:26:45;;;;;;;81.80;35.40;;;;;;;9.66;87.23;102379.13;5075701;28;20433;-49
2021/11/11 07:29:10;;;;;;;88.50;35.28;;;;;;;9.66;87.33;102373.75;5075369;28;20056;-47
2021/11/11 07:31:36;;;;;;;80.72;35.80;;;;;;;9.71;87.55;102376.88;5075081;28;20531;-46
2021/11/11 07:34:01;;;;;;;72.10;34.78;;;;;;;9.73;87.81;102380.28;5075292;28;20442;-48
2021/11/11 07:36:27;;;;;;;92.03;39.22;;;;;;;9.73;88.53;102379.44;5075020;28;20035;-46
2021/11/11 07:38:53;;;;;;;100.05;42.25;;;;;;;9.67;89.73;102379.00;5075288;28;20071;-47
2021/11/11 07:41:18;;;;;;;94.55;40.88;;;;;;;9.66;90.41;102384.50;5074456;28;20040;-46
2021/11/11 07:43:44;;;;;;;105.18;44.58;;;;;;;9.68;90.36;102382.53;5074883;28;20040;-47
2021/11/11 07:46:09;;;;;;;108.35;45.30;;;;;;;9.72;90.76;102383.97;5074790;28;20047;-49
2021/11/11 07:48:35;;;;;;;116.55;48.00;;;;;;;9.71;90.84;102382.25;5074709;28;20029;-47
2021/11/11 07:51:00;;;;;;;100.60;45.22;;;;;;;9.68;91.12;102385.22;5074915;28;20041;-47
2021/11/11 07:53:27;;;;;;;113.75;47.30;;;;;;;9.66;91.28;102388.06;5075203;28;20421;-47
2021/11/11 07:55:52;;;;;;;114.05;48.20;;;;;;;9.64;91.72;102386.50;5075188;28;20048;-47
2021/11/11 07:58:18;;;;;;;132.48;50.33;;;;;;;9.69;91.82;102395.00;5074805;28;20027;-46
2021/11/11 08:00:43;;;;;;;122.95;50.88;;;;;;;9.68;91.86;102387.91;5074797;28;20472;-46
2021/11/11 08:03:09;;;;;;;115.22;48.90;;;;;;;9.70;92.49;102385.94;5056911;28;20033;-47
2021/11/11 08:05:34;;;;;;;119.18;49.40;;;;;;;9.86;92.04;102386.25;5074936;28;20107;-49
2021/11/11 08:08:00;;;;;;;132.38;57.95;;;;;;;9.85;91.77;102400.69;5074760;28;20483;-46
2021/11/11 08:10:25;;;;;;;112.10;48.45;;;;;;;9.92;91.78;102390.22;5074516;28;20024;-47
2021/11/11 08:12:51;;;;;;;115.57;47.10;;;;;;;9.85;91.47;102391.78;5056696;28;20059;-49
2021/11/11 08:15:17;;;;;;;118.93;47.38;;;;;;;9.89;91.42;102396.72;5075038;28;20033;-47
2021/11/11 08:17:42;;;;;;;111.63;47.17;;;;;;;9.85;91.51;102384.56;5056819;28;20029;-47
2021/11/11 08:20:08;;;;;;;115.60;48.58;;;;;;;9.84;91.72;102380.16;5074155;28;20036;-46
2021/11/11 08:22:34;;;;;;;115.82;49.35;;;;;;;9.87;92.11;102371.81;5074377;28;20051;-47
2021/11/11 08:25:00;;;;;;;121.07;48.13;;;;;;;9.86;91.91;102380.88;5074838;28;20028;-46
2021/11/11 08:27:25;;;;;;;127.43;49.58;;;;;;;9.91;91.86;102382.28;5074641;28;20438;-48
2021/11/11 08:29:52;;;;;;;109.60;47.78;;;;;;;9.89;91.77;102377.88;5056630;28;20044;-46
2021/11/11 08:32:18;;;;;;;114.00;48.38;;;;;;;9.92;91.99;102384.00;5074593;28;20064;-47
2021/11/11 08:34:45;;;;;;;106.03;47.25;;;;;;;9.92;91.53;102379.44;5073356;28;20029;-46
2021/11/11 08:37:11;;;;;;;114.22;48.63;;;;;;;9.97;91.69;102381.72;5074622;28;20483;-46
2021/11/11 08:39:37;;;;;;;114.20;48.17;;;;;;;10.04;91.75;102372.13;5074557;28;20033;-47
2021/11/11 08:42:04;;;;;;;112.07;48.03;;;;;;;10.10;91.80;102376.91;5074258;28;20025;-46
2021/11/11 08:44:29;;;;;;;106.90;46.97;;;;;;;10.21;91.50;102389.38;5056478;28;20020;-45
2021/11/11 08:46:55;;;;;;;104.60;48.08;;;;;;;10.24;90.94;102389.97;5074115;28;20379;-45
2021/11/11 08:49:21;;;;;;;111.15;47.10;;;;;;;10.21;90.39;102390.22;5072212;28;20045;-44
2021/11/11 08:51:48;;;;;;;116.60;47.13;;;;;;;10.14;90.65;102399.88;5073606;28;20024;-44
2021/11/11 08:54:14;;;;;;;115.63;46.70;;;;;;;10.20;90.99;102391.22;5074354;28;20032;-47
2021/11/11 08:56:39;;;;;;;107.60;48.10;;;;;;;10.25;90.86;102396.19;5074088;28;20028;-49
2021/11/11 08:59:05;;;;;;;103.65;47.97;;;;;;;10.23;90.64;102393.63;5073813;28;20467;-46
2021/11/11 09:01:34;;;;;;;101.30;45.97;;;;;;;10.26;90.69;102395.19;5055817;28;20494;-47
2021/11/11 09:03:59;;;;;;;115.15;50.10;;;;;;;10.25;90.84;102390.81;5056366;28;20158;-46
2021/11/11 09:06:26;;;;;;;106.63;50.08;;;;;;;10.22;90.74;102381.19;5073881;28;20117;-46
2021/11/11 09:08:52;;;;;;;123.70;52.53;;;;;;;10.18;91.10;102389.66;5055793;28;20082;-46
2021/11/11 09:11:22;;;;;;;120.88;55.28;;;;;;;10.19;91.44;102391.34;5066065;28;20438;-49
2021/11/11 09:13:48;;;;;;;111.90;53.63;;;;;;;10.19;91.46;102391.34;5049063;28;20146;-46
2021/11/11 09:16:13;;;;;;;115.00;52.13;;;;;;;10.24;91.34;102394.47;5073742;28;20051;-47
2021/11/11 09:18:40;;;;;;;118.00;54.92;;;;;;;10.27;91.50;102388.84;5044097;28;20064;-47
2021/11/11 09:21:09;;;;;;;123.22;55.33;;;;;;;10.25;91.41;102397.03;5053371;28;20032;-49
2021/11/11 09:23:36;;;;;;;121.07;53.75;;;;;;;10.30;91.58;102400.19;5053620;28;20493;-47
2021/11/11 09:26:03;;;;;;;120.78;54.47;;;;;;;10.27;91.45;102399.59;5053694;28;20104;-46
2021/11/11 09:28:29;;;;;;;130.68;55.42;;;;;;;10.24;91.51;102395.34;5053623;28;20151;-49
2021/11/11 09:30:55;;;;;;;134.38;56.55;;;;;;;10.23;91.68;102393.63;5047461;28;20617;-46
2021/11/11 09:33:20;;;;;;;122.20;57.30;;;;;;;10.28;91.62;102396.78;5054088;28;20100;-46
2021/11/11 09:35:46;;;;;;;125.32;59.35;;;;;;;10.26;91.82;102400.56;5035800;28;20115;-48
2021/11/11 09:38:11;;;;;;;123.65;56.15;;;;;;;10.31;91.88;102396.50;5055397;28;20056;-49
2021/11/11 09:40:37;;;;;;;124.10;56.45;;;;;;;10.43;91.57;102394.53;5055517;28;20031;-48
2021/11/11 09:43:03;;;;;;;127.18;57.03;;;;;;;10.56;91.20;102399.59;5073293;28;20158;-46
2021/11/11 09:45:31;;;;;;;126.18;56.00;;;;;;;10.57;90.74;102397.75;5074065;28;20028;-48
2021/11/11 09:47:57;;;;;;;;;;;;;;;10.55;89.87;102403.28;5075082;28;20476;-49
2021/11/11 09:50:25;;;;;;;101.22;48.17;;;;;;;10.66;89.79;102403.09;5056809;28;19913;-45
2021/11/11 09:52:51;;;;;;;106.07;51.38;;;;;;;10.62;89.69;102396.34;5073931;28;20107;-49
2021/11/11 10:00:48;;;;;;;113.03;51.67;;;;;;;10.57;89.66;102403.16;5067521;28;20086;-47
2021/11/11 10:03:14;;;;;;;107.20;51.55;;;;;;;10.48;90.02;102400.31;5055175;28;20051;-48
2021/11/11 10:05:40;;;;;;;118.78;54.38;;;;;;;10.48;89.98;102399.47;5056582;28;20464;-47
2021/11/11 10:08:06;;;;;;;115.03;53.72;;;;;;;10.50;90.00;102400.16;5054518;28;20040;-49
2021/11/11 10:10:40;;;;;;;125.20;53.83;;;;;;;10.53;89.69;102407.94;5072424;28;20066;-46
2021/11/11 10:13:17;;;;;;;112.85;53.53;;;;;;;10.61;89.90;102399.16;5072646;28;20070;-48
2021/11/11 10:16:08;;;;;;;111.55;53.00;;;;;;;10.58;89.52;102408.38;5072102;28;20029;-48
2021/11/11 10:18:54;;;;;;;108.43;51.47;;;;;;;10.59;89.46;102404.69;5054608;28;20035;-47
2021/11/11 10:21:41;;;;;;;104.88;50.67;;;;;;;10.53;89.32;102410.63;5071957;28;20027;-41
2021/11/11 10:24:30;;;;;;;108.22;50.58;;;;;;;10.51;89.54;102412.66;5043803;28;20443;-43
2021/11/11 10:27:05;;;;;;;107.70;50.95;;;;;;;10.54;89.34;102420.44;5070134;28;20016;-45
2021/11/11 10:29:33;;;;;;;114.43;53.05;;;;;;;10.58;89.56;102424.53;5071674;28;20076;-44
2021/11/11 10:32:01;;;;;;;120.68;52.53;;;;;;;10.60;89.42;102416.31;5057222;28;20297;-44
2021/11/11 10:34:27;;;;;;;114.50;51.70;;;;;;;10.67;89.41;102415.59;5054978;28;20051;-45
2021/11/11 10:36:54;;;;;;;99.72;49.67;;;;;;;10.70;89.16;102418.00;5067412;28;20036;-45
2021/11/11 10:39:25;;;;;;;95.30;48.47;;;;;;;10.76;89.13;102406.63;5051746;28;20415;-44
2021/11/11 10:41:52;;;;;;;104.72;47.92;;;;;;;10.87;88.86;102412.84;5059240;28;20371;-44
2021/11/11 10:44:30;;;;;;;90.50;47.42;;;;;;;10.90;88.11;102413.44;5059674;28;20407;-45
2021/11/11 10:46:57;;;;;;;95.65;47.63;;;;;;;10.99;88.16;102411.69;5072153;28;20467;-46
2021/11/11 10:49:43;;;;;;;93.22;47.15;;;;;;;11.03;87.51;102410.41;5053774;28;20414;-46
2021/11/11 10:52:28;;;;;;;95.90;46.70;;;;;;;11.01;87.55;102407.03;5072610;28;20395;-46
2021/11/11 10:55:12;;;;;;;85.78;45.63;;;;;;;10.96;87.83;102412.00;5038612;28;20028;-45
2021/11/11 10:57:39;;;;;;;103.28;47.35;;;;;;;10.98;87.70;102412.72;5057767;28;20035;-45
2021/11/11 11:00:09;;;;;;;92.60;45.85;;;;;;;11.00;87.80;102408.00;5060735;28;20028;-45
2021/11/11 11:02:50;;;;;;;106.22;50.05;;;;;;;11.06;87.79;102415.53;5053298;28;20086;-45
2021/11/11 11:05:16;;;;;;;92.05;46.08;;;;;;;11.09;87.51;102417.91;5056232;28;20438;-45
2021/11/11 11:07:41;;;;;;;83.53;45.60;;;;;;;11.08;87.19;102409.97;5070431;28;20024;-45
2021/11/11 11:10:07;;;;;;;89.13;45.95;;;;;;;11.12;87.22;102406.84;5076087;28;20024;-45
2021/11/11 11:12:33;;;;;;;104.47;46.88;;;;;;;11.06;87.38;102404.75;5057838;28;20095;-45
2021/11/11 11:14:59;;;;;;;90.68;48.53;;;;;;;11.11;87.46;102399.75;5069619;28;20589;-46
2021/11/11 11:17:25;;;;;;;95.22;46.10;;;;;;;11.17;87.18;102404.53;5062675;28;20039;-44
2021/11/11 11:20:17;;;;;;;87.07;44.35;;;;;;;10.99;87.34;102406.31;5072877;28;20505;-46
2021/11/11 11:22:43;;;;;;;91.10;45.33;;;;;;;11.03;87.70;102406.84;5070765;28;20028;-45
2021/11/11 11:25:08;;;;;;;102.07;45.97;;;;;;;11.03;87.50;102396.09;5069052;28;20350;-46
2021/11/11 11:27:36;;;;;;;94.57;46.60;;;;;;;11.04;87.33;102393.25;5074200;28;20033;-46
2021/11/11 11:30:10;;;;;;;92.95;45.75;;;;;;;11.02;87.40;102389.84;5057897;28;20048;-45
2021/11/11 11:32:40;;;;;;;97.10;45.63;;;;;;;11.05;87.15;102389.56;5069594;28;20028;-45
2021/11/11 11:35:06;;;;;;;95.30;46.30;;;;;;;11.01;87.29;102393.56;5064986;28;20115;-44
2021/11/11 11:37:34;;;;;;;98.25;46.65;;;;;;;11.03;87.18;102391.53;5075121;28;20024;-46
2021/11/11 11:40:10;;;;;;;87.10;43.92;;;;;;;11.02;86.98;102397.09;5058448;28;20107;-46